Disclaimer

Please do not use the information listed here in-flight or in-navigation, as they are not provided to us by the airports but are provided by volunteers, so they might be outdated.

Search


Regions


Airport information page

Radio informations:
Brisbane Center - 127.1 MHz
Common traffic adv. frequency (CTAF) - 126.7 MHz

Airport informations:
Latitude: 30° 19' 09.00" S
Longitude: 149° 49' 38.00" E
Elevation: 788 feet - 240 meters
Operating hours: N/A
Operating agency: Civil government, landing fees and diplomatic clearance may be required
Timezone: UTC+10(+11DT)
Fuel: 100/130 MIL Spec, low lead, aviation gasoline (BLUE)

Runway information:
09/27 - 3980 x 98 feet< - >1213 x 30 meters
18/36 - 5000 x 98 feet< - >1524 x 30 meters

Recent METARs:
YNBR 142100Z AUTO 08004KT 9999 // NCD 24/11 Q1017
YNBR 142100Z AUTO 08004KT 9999 // NCD 24/11 Q1017
YNBR 142200Z AUTO 33004KT 280V030 9999 // NCD 26/10 Q1018

Airport on the map: